Terminal Aerodrome Forecast
Issued by NWS

Home | Current Version | Previous Version | Graphics & Text | Print | Product List | Glossary On
Versions: 1 2 3 4 5 6 7 8 9 10 11 12
692
FTUS43 KMPX 122320
TAFRNH
TAF
KRNH 122320Z 1300/1324 31009G18KT P6SM SKC
     FM130100 31009KT P6SM SKC
     FM131200 VRB02KT P6SM FEW250
     FM132000 18005KT P6SM SCT250=

USA.gov is the U.S. government's official web portal to all federal, state and local government web resources and services.